Time;durP1;ratioP1;P1;durP2;ratioP2;P2;SDS_P1;SDS_P2;PMS_P1;PMS_P2;Temp;Humidity;BMP_temperature;BMP_pressure;BME280_temperature;BME280_humidity;BME280_pressure;Samples;Min_cycle;Max_cycle;Signal;HPM_P1;HPM_P2
2023/03/30 00:00:56;;;;;;;4.05;2.70;;;;;;;10.64;69.33;97785.44;7388639;19;20017;-79
2023/03/30 00:03:23;;;;;;;3.50;2.40;;;;;;;10.65;69.51;97787.09;7396385;19;20007;-79
2023/03/30 00:05:50;;;;;;;5.00;2.88;;;;;;;10.63;69.48;97789.84;7386045;19;20017;-80
2023/03/30 00:08:17;;;;;;;5.90;2.90;;;;;;;10.63;69.61;97789.03;7394597;19;20017;-78
2023/03/30 00:10:45;;;;;;;3.90;2.72;;;;;;;10.63;69.53;97789.03;7394022;19;20029;-79
2023/03/30 00:13:12;;;;;;;4.88;2.30;;;;;;;10.64;69.73;97801.06;7392929;19;20045;-77
2023/03/30 00:15:39;;;;;;;5.65;2.90;;;;;;;10.58;69.95;97792.09;7396088;19;20031;-78
2023/03/30 00:18:07;;;;;;;5.10;2.78;;;;;;;10.59;69.76;97783.31;7395956;19;20006;-78
2023/03/30 00:20:36;;;;;;;2.55;2.20;;;;;;;10.55;69.35;97784.56;7393848;19;20426;-80
2023/03/30 00:23:02;;;;;;;3.72;2.50;;;;;;;10.54;69.71;97789.91;7396500;19;20199;-78
2023/03/30 00:25:28;;;;;;;4.07;2.42;;;;;;;10.47;69.67;97780.13;7392884;19;20462;-78
2023/03/30 00:27:55;;;;;;;6.90;2.90;;;;;;;10.43;70.46;97775.38;7394173;19;20015;-78
2023/03/30 00:30:21;;;;;;;5.70;2.58;;;;;;;10.40;70.04;97783.47;7392812;19;20027;-78
2023/03/30 00:32:47;;;;;;;3.88;2.90;;;;;;;10.41;70.25;97770.31;7395271;19;20048;-77
2023/03/30 00:35:14;;;;;;;2.78;2.22;;;;;;;10.43;70.31;97770.16;7393788;19;20018;-80
2023/03/30 00:37:44;;;;;;;3.08;2.30;;;;;;;10.44;70.16;97769.19;7392985;19;20006;-78
2023/03/30 00:40:19;;;;;;;4.13;2.53;;;;;;;10.40;70.18;97765.25;7389758;19;20010;-79
2023/03/30 00:42:46;;;;;;;3.65;2.55;;;;;;;10.40;69.74;97765.25;7390742;19;20465;-78
2023/03/30 00:45:30;;;;;;;3.08;2.40;;;;;;;10.38;69.83;97760.19;7392663;19;20473;-77
2023/03/30 00:48:18;;;;;;;3.97;3.10;;;;;;;10.37;70.34;97758.56;7393839;19;20018;-78
2023/03/30 00:50:55;;;;;;;3.88;2.40;;;;;;;10.35;69.69;97755.31;7392789;19;20023;-79
2023/03/30 00:53:33;;;;;;;4.40;2.40;;;;;;;10.38;69.59;97754.19;7395217;19;20074;-79
2023/03/30 00:56:03;;;;;;;4.43;2.75;;;;;;;10.37;69.55;97761.19;7392320;19;20014;-78
2023/03/30 00:58:30;;;;;;;5.05;2.47;;;;;;;10.37;69.17;97755.97;7393414;19;20010;-78
2023/03/30 01:01:00;;;;;;;3.13;2.47;;;;;;;10.36;69.26;97750.91;7393780;19;20017;-79
2023/03/30 01:03:33;;;;;;;2.30;2.10;;;;;;;10.35;69.82;97742.28;7394115;19;20014;-80
2023/03/30 01:06:08;;;;;;;;;;;;;;;10.33;69.98;97738.19;7395418;19;20010;-79
2023/03/30 01:08:36;;;;;;;4.47;2.50;;;;;;;10.29;69.71;97725.44;7390442;19;20267;-78
2023/03/30 01:11:06;;;;;;;4.78;2.40;;;;;;;10.33;69.79;97722.56;7394574;19;20017;-78
2023/03/30 01:13:38;;;;;;;4.35;2.50;;;;;;;10.27;69.68;97716.16;7394926;19;20026;-79
2023/03/30 01:16:47;;;;;;;4.63;2.47;;;;;;;10.26;68.96;97715.38;7395472;19;20030;-78
2023/03/30 01:20:08;;;;;;;4.70;2.28;;;;;;;10.33;68.76;97712.97;7393157;19;20026;-77
2023/03/30 01:23:07;;;;;;;2.70;2.17;;;;;;;10.33;69.01;97709.56;7392904;19;20018;-78
2023/03/30 01:26:11;;;;;;;4.50;2.80;;;;;;;10.32;68.65;97711.34;7393939;19;20022;-79
2023/03/30 01:29:14;;;;;;;6.82;2.72;;;;;;;10.33;69.09;97704.34;7395041;19;20014;-80
2023/03/30 01:31:59;;;;;;;3.53;2.55;;;;;;;10.28;68.91;97696.97;7394550;19;20034;-80
2023/03/30 01:34:59;;;;;;;5.28;2.40;;;;;;;10.27;69.06;97690.16;7394883;19;20054;-80
2023/03/30 01:37:59;;;;;;;6.18;2.30;;;;;;;10.28;68.92;97686.56;7394920;19;20462;-79
2023/03/30 01:40:38;;;;;;;5.93;2.30;;;;;;;10.29;68.84;97683.00;7390633;19;20022;-79
2023/03/30 01:43:10;;;;;;;3.67;2.30;;;;;;;10.32;68.36;97680.13;7396234;19;20365;-79
2023/03/30 01:46:02;;;;;;;3.70;2.45;;;;;;;10.40;67.96;97674.16;7392347;19;20446;-80
2023/03/30 01:48:47;;;;;;;4.95;2.25;;;;;;;10.45;67.82;97671.91;7393162;19;20459;-80
2023/03/30 01:51:25;;;;;;;4.60;2.45;;;;;;;10.50;67.89;97669.66;7388890;19;20014;-79
2023/03/30 01:54:13;;;;;;;6.60;2.40;;;;;;;10.45;67.46;97662.31;7389863;19;20006;-80
2023/03/30 01:57:06;;;;;;;2.80;2.35;;;;;;;10.45;67.42;97646.72;7392429;19;20006;-80
2023/03/30 02:00:10;;;;;;;3.75;2.17;;;;;;;10.45;67.19;97643.25;7392382;19;20014;-78
2023/03/30 02:02:39;;;;;;;4.88;2.42;;;;;;;10.46;67.06;97644.91;7392159;19;20010;-80
2023/03/30 02:05:09;;;;;;;5.03;2.30;;;;;;;10.48;67.13;97641.16;7383959;19;20016;-79
2023/03/30 02:07:38;;;;;;;4.95;2.80;;;;;;;10.51;67.14;97657.47;7391227;19;20117;-79
2023/03/30 02:10:09;;;;;;;4.45;2.45;;;;;;;10.53;67.22;97658.94;7392529;19;20017;-78
2023/03/30 02:12:37;;;;;;;4.90;2.72;;;;;;;10.54;67.04;97660.59;7392525;19;20114;-80
2023/03/30 02:15:09;;;;;;;6.05;2.70;;;;;;;10.56;67.14;97660.44;7391768;19;20022;-79
2023/03/30 02:17:36;;;;;;;5.57;2.40;;;;;;;10.55;66.87;97657.00;7391808;19;20069;-79
2023/03/30 02:20:08;;;;;;;4.38;2.67;;;;;;;10.54;66.64;97654.53;7392069;19;20017;-79
2023/03/30 02:22:34;;;;;;;4.80;2.30;;;;;;;10.52;66.85;97649.50;7389878;19;20006;-81
2023/03/30 02:25:01;;;;;;;3.10;2.30;;;;;;;10.55;66.28;97650.97;7392149;19;20316;-78
2023/03/30 02:27:28;;;;;;;3.70;2.20;;;;;;;10.55;66.13;97661.38;7391593;19;20009;-79
2023/03/30 02:29:55;;;;;;;3.92;2.50;;;;;;;10.55;66.75;97667.41;7388301;19;20014;-79
2023/03/30 02:32:30;;;;;;;4.93;2.50;;;;;;;10.54;66.69;97668.41;7391739;19;20015;-80
2023/03/30 02:35:18;;;;;;;5.57;2.75;;;;;;;10.55;66.35;97667.41;7392248;19;20007;-79
2023/03/30 02:38:04;;;;;;;5.22;2.15;;;;;;;10.55;66.47;97670.00;7389504;19;20010;-79
2023/03/30 02:40:55;;;;;;;3.60;2.33;;;;;;;10.54;66.00;97664.94;7389171;19;20002;-79
2023/03/30 02:43:46;;;;;;;6.65;2.13;;;;;;;10.58;66.52;97667.09;7391344;19;20006;-79
2023/03/30 02:46:47;;;;;;;7.90;2.63;;;;;;;10.64;65.76;97660.44;7391539;19;20027;-78
2023/03/30 02:49:33;;;;;;;9.82;2.40;;;;;;;10.74;66.19;97662.94;7385969;19;20582;-78
2023/03/30 02:52:13;;;;;;;6.88;2.50;;;;;;;10.78;64.89;97665.09;7387809;19;20014;-77
2023/03/30 02:54:48;;;;;;;6.65;2.78;;;;;;;10.83;65.65;97662.84;7393326;19;20019;-80
2023/03/30 02:57:32;;;;;;;3.15;2.33;;;;;;;10.85;65.59;97653.09;7389617;19;20078;-78
2023/03/30 03:00:14;;;;;;;6.95;2.92;;;;;;;10.86;65.71;97659.94;7389142;19;20014;-79
2023/03/30 03:02:50;;;;;;;4.57;2.47;;;;;;;10.89;65.36;97665.78;7391735;19;20010;-80
2023/03/30 03:05:17;;;;;;;6.30;2.60;;;;;;;10.86;65.40;97665.16;7381879;19;20027;-80
2023/03/30 03:07:43;;;;;;;7.22;2.80;;;;;;;10.91;65.39;97666.44;7396278;19;20038;-78
2023/03/30 03:10:10;;;;;;;7.72;2.60;;;;;;;10.92;65.54;97673.31;7398045;19;20011;-79
2023/03/30 03:12:36;;;;;;;4.20;2.30;;;;;;;10.91;65.61;97672.47;7395317;19;20010;-78
2023/03/30 03:15:04;;;;;;;4.68;2.75;;;;;;;10.86;66.10;97672.97;7398362;19;20035;-78
2023/03/30 03:17:33;;;;;;;4.00;2.30;;;;;;;10.85;66.03;97675.72;7394674;19;20021;-80
2023/03/30 03:20:02;;;;;;;6.75;2.53;;;;;;;10.87;65.56;97666.75;7396022;19;20015;-80
2023/03/30 03:22:30;;;;;;;4.43;2.60;;;;;;;10.90;66.13;97660.44;7395030;19;20006;-81
2023/03/30 03:24:56;;;;;;;7.00;2.70;;;;;;;10.93;65.77;97667.91;7395750;19;20017;-79
2023/03/30 03:27:23;;;;;;;5.35;2.60;;;;;;;10.95;65.71;97666.00;7398245;19;20014;-77
2023/03/30 03:29:49;;;;;;;6.32;2.95;;;;;;;10.99;65.63;97672.50;7397226;19;20019;-78
2023/03/30 03:32:15;;;;;;;8.85;2.55;;;;;;;10.98;65.92;97675.28;7395385;19;20006;-79
2023/03/30 03:34:44;;;;;;;6.63;2.78;;;;;;;11.03;65.81;97670.41;7396710;19;20375;-79
2023/03/30 03:37:12;;;;;;;6.22;2.70;;;;;;;11.05;65.86;97660.63;7396003;19;20018;-78
2023/03/30 03:39:38;;;;;;;6.18;2.88;;;;;;;11.11;65.80;97651.41;7395569;19;20002;-78
2023/03/30 03:42:06;;;;;;;4.20;2.47;;;;;;;11.20;65.42;97650.44;7396450;19;20052;-78
2023/03/30 03:44:32;;;;;;;6.30;2.58;;;;;;;11.23;64.87;97655.34;7391932;19;20010;-78
2023/03/30 03:46:59;;;;;;;7.80;3.10;;;;;;;11.21;65.21;97660.69;7392388;19;20022;-79
2023/03/30 03:49:25;;;;;;;4.05;2.72;;;;;;;11.17;65.31;97656.78;7395493;19;20130;-80
2023/03/30 03:51:52;;;;;;;8.63;3.00;;;;;;;11.17;65.25;97663.78;7393863;19;20014;-80
2023/03/30 03:54:18;;;;;;;5.95;2.88;;;;;;;11.13;65.51;97665.06;7395375;19;20017;-79
2023/03/30 03:56:44;;;;;;;6.82;2.85;;;;;;;11.09;65.87;97654.16;7396620;19;20010;-78
2023/03/30 03:59:11;;;;;;;8.48;3.13;;;;;;;11.09;65.98;97650.72;7394509;19;20034;-81
2023/03/30 04:01:37;;;;;;;8.00;2.92;;;;;;;11.12;66.29;97650.41;7393788;19;20002;-79
2023/03/30 04:04:03;;;;;;;6.45;2.75;;;;;;;11.13;65.73;97647.63;7387650;19;20016;-88
2023/03/30 04:06:30;;;;;;;5.95;3.00;;;;;;;11.16;65.79;97654.34;7395785;19;20007;-86
2023/03/30 04:08:57;;;;;;;7.70;2.95;;;;;;;11.18;65.71;97657.59;7392509;19;20023;-85
2023/03/30 04:11:23;;;;;;;7.20;2.63;;;;;;;11.23;65.54;97661.34;7395641;19;20010;-88
2023/03/30 04:13:49;;;;;;;9.45;2.80;;;;;;;11.24;66.08;97655.19;7396359;19;20007;-86
2023/03/30 04:16:15;;;;;;;6.93;2.78;;;;;;;11.32;66.00;97658.78;7396276;19;20002;-89
2023/03/30 04:18:42;;;;;;;7.82;2.72;;;;;;;11.34;66.25;97651.59;7395789;19;20021;-86
2023/03/30 04:21:11;;;;;;;7.22;2.97;;;;;;;11.37;65.61;97654.72;7393899;19;20010;-89
2023/03/30 04:23:38;;;;;;;8.40;2.63;;;;;;;11.37;66.19;97646.09;7395775;19;20348;-88
2023/03/30 04:26:12;;;;;;;6.38;2.60;;;;;;;11.40;66.00;97654.41;7396134;19;20002;-87
2023/03/30 04:28:39;;;;;;;7.43;3.00;;;;;;;11.43;66.33;97655.88;7395817;19;20018;-88
2023/03/30 04:31:11;;;;;;;5.40;2.70;;;;;;;11.41;67.67;97660.41;7393937;19;20014;-89
2023/03/30 04:33:49;;;;;;;7.45;2.60;;;;;;;11.43;68.62;97655.88;7398595;19;20011;-87
2023/03/30 04:36:16;;;;;;;9.45;2.92;;;;;;;11.42;70.40;97662.88;7395572;19;20007;-87
2023/03/30 04:38:59;;;;;;;8.00;3.17;;;;;;;11.36;71.43;97653.09;7394935;19;20007;-87
2023/03/30 04:41:32;;;;;;;9.05;3.20;;;;;;;11.34;72.77;97662.03;7392248;19;20010;-87
2023/03/30 04:44:01;;;;;;;5.43;2.80;;;;;;;11.31;73.19;97657.13;7397329;19;20002;-85
2023/03/30 04:46:28;;;;;;;5.68;3.28;;;;;;;11.26;73.91;97668.06;7392302;19;20014;-86
2023/03/30 04:48:54;;;;;;;10.50;3.35;;;;;;;11.25;73.75;97676.84;7396260;19;20006;-89
2023/03/30 04:51:21;;;;;;;10.82;3.05;;;;;;;11.24;74.22;97676.03;7392825;19;20019;-83
2023/03/30 04:53:47;;;;;;;8.45;3.10;;;;;;;11.24;74.45;97669.97;7394428;19;20014;-84
2023/03/30 04:56:14;;;;;;;7.07;3.47;;;;;;;11.24;74.83;97673.44;7395109;19;20010;-84
2023/03/30 04:58:40;;;;;;;6.60;2.88;;;;;;;11.23;74.71;97679.59;7393478;19;20808;-85
2023/03/30 05:01:07;;;;;;;6.38;2.85;;;;;;;11.18;75.64;97684.47;7392678;19;20069;-85
2023/03/30 05:03:35;;;;;;;8.02;3.38;;;;;;;11.11;76.15;97675.66;7386244;19;20408;-84
2023/03/30 05:06:03;;;;;;;11.00;3.08;;;;;;;11.17;76.60;97687.22;7393464;19;20010;-84
2023/03/30 05:08:31;;;;;;;9.40;2.92;;;;;;;11.23;77.14;97687.41;7395259;19;20010;-84
2023/03/30 05:11:06;;;;;;;7.78;3.40;;;;;;;11.28;77.11;97688.75;7394670;19;20014;-84
2023/03/30 05:13:33;;;;;;;15.13;3.70;;;;;;;11.35;77.02;97674.91;7394702;19;20347;-84
2023/03/30 05:15:59;;;;;;;9.23;3.53;;;;;;;11.37;76.94;97678.16;7391774;19;20014;-85
2023/03/30 05:18:25;;;;;;;10.63;4.15;;;;;;;11.42;76.78;97675.09;7392237;19;20003;-85
2023/03/30 05:20:57;;;;;;;13.68;3.50;;;;;;;11.46;77.24;97668.56;7393007;19;20438;-84
2023/03/30 05:23:24;;;;;;;9.82;2.95;;;;;;;11.48;76.81;97650.16;7392488;19;20062;-85
2023/03/30 05:25:51;;;;;;;6.35;2.90;;;;;;;11.45;76.92;97659.13;7394976;19;20022;-86
2023/03/30 05:28:17;;;;;;;11.68;3.50;;;;;;;11.42;77.76;97670.69;7394505;19;20010;-85
2023/03/30 05:30:45;;;;;;;11.75;3.63;;;;;;;11.38;77.46;97679.00;7389980;19;20578;-86
2023/03/30 05:33:12;;;;;;;7.05;3.15;;;;;;;11.39;77.69;97675.41;7392851;19;20018;-87
2023/03/30 05:35:38;;;;;;;7.43;3.40;;;;;;;11.35;77.77;97685.34;7395037;19;20010;-86
2023/03/30 05:38:06;;;;;;;11.68;3.15;;;;;;;11.29;78.23;97674.72;7394821;19;20018;-88
2023/03/30 05:40:32;;;;;;;9.65;3.70;;;;;;;11.27;78.46;97669.66;7393113;19;20120;-84
2023/03/30 05:43:01;;;;;;;6.47;3.08;;;;;;;11.28;78.50;97667.91;7392268;19;20073;-86
2023/03/30 05:45:27;;;;;;;9.38;3.47;;;;;;;11.27;78.43;97653.22;7396307;19;20009;-84
2023/03/30 05:47:54;;;;;;;8.05;3.03;;;;;;;11.30;78.95;97653.72;7391216;19;20066;-83
2023/03/30 05:50:21;;;;;;;9.90;2.97;;;;;;;11.36;78.87;97657.47;7388514;19;20829;-83
2023/03/30 05:52:48;;;;;;;7.45;3.20;;;;;;;11.37;78.78;97644.28;7387047;19;20007;-81
2023/03/30 05:55:14;;;;;;;6.45;3.63;;;;;;;11.40;78.57;97643.16;7391955;19;20082;-81
2023/03/30 05:57:40;;;;;;;8.15;3.80;;;;;;;11.37;78.38;97638.25;7393226;19;20356;-82
2023/03/30 06:00:09;;;;;;;8.20;3.47;;;;;;;11.38;78.29;97627.69;7391115;19;20006;-81
2023/03/30 06:02:35;;;;;;;8.07;3.45;;;;;;;11.41;78.27;97626.53;7391964;19;20017;-82
2023/03/30 06:05:02;;;;;;;8.55;3.25;;;;;;;11.41;78.64;97623.91;7380749;19;20010;-82
2023/03/30 06:07:38;;;;;;;7.88;3.28;;;;;;;11.43;78.91;97611.56;7391665;19;20007;-81
2023/03/30 06:10:06;;;;;;;9.27;3.15;;;;;;;11.46;79.13;97603.38;7391455;19;20492;-82
2023/03/30 06:12:33;;;;;;;13.68;3.60;;;;;;;11.47;79.00;97596.41;7389612;19;20013;-80
2023/03/30 06:15:01;;;;;;;17.52;3.80;;;;;;;11.49;79.14;97571.78;7389859;19;20013;-81
2023/03/30 06:17:28;;;;;;;12.80;3.53;;;;;;;11.58;78.92;97564.78;7391773;19;20012;-80
2023/03/30 06:19:55;;;;;;;6.90;3.45;;;;;;;11.65;78.69;97559.72;7388005;19;20002;-82
2023/03/30 06:22:22;;;;;;;9.15;3.35;;;;;;;11.74;78.64;97558.75;7374572;19;20007;-81
2023/03/30 06:24:48;;;;;;;9.00;3.50;;;;;;;11.72;78.73;97556.31;7389944;19;20018;-82
2023/03/30 06:27:14;;;;;;;9.30;3.30;;;;;;;11.66;78.85;97559.56;7390647;19;20010;-84
2023/03/30 06:29:41;;;;;;;9.70;3.28;;;;;;;11.66;79.19;97554.34;7391902;19;20011;-84
2023/03/30 06:32:07;;;;;;;14.57;4.78;;;;;;;11.75;78.89;97568.19;7391943;19;20002;-83
2023/03/30 06:34:33;;;;;;;13.93;7.35;;;;;;;11.78;78.52;97565.28;7390436;19;20112;-83
2023/03/30 06:37:00;;;;;;;16.33;7.38;;;;;;;11.77;79.22;97579.28;7390053;19;20010;-83
2023/03/30 06:39:26;;;;;;;12.93;5.88;;;;;;;11.74;79.21;97569.19;7391482;19;20462;-83
2023/03/30 06:41:53;;;;;;;11.13;4.97;;;;;;;11.61;79.09;97575.69;7387335;19;20006;-81
2023/03/30 06:44:19;;;;;;;9.57;3.78;;;;;;;11.65;79.25;97563.13;7388473;19;20026;-83
2023/03/30 06:46:45;;;;;;;7.55;3.72;;;;;;;11.70;78.92;97567.88;7389198;19;20013;-86
2023/03/30 06:49:12;;;;;;;11.20;3.83;;;;;;;11.72;78.59;97564.13;7389081;19;20007;-84
2023/03/30 06:51:41;;;;;;;11.57;4.35;;;;;;;11.71;78.95;97572.94;7384780;19;20039;-84
2023/03/30 06:54:07;;;;;;;8.95;4.13;;;;;;;11.72;78.86;97566.75;7389607;19;20006;-82
2023/03/30 06:56:33;;;;;;;9.77;4.65;;;;;;;11.69;79.13;97561.03;7389236;19;20018;-83
2023/03/30 06:58:59;;;;;;;11.27;4.13;;;;;;;11.70;79.09;97560.84;7388157;19;20456;-83
2023/03/30 07:01:26;;;;;;;15.05;3.78;;;;;;;11.66;79.63;97556.16;7388951;19;20018;-83
2023/03/30 07:03:52;;;;;;;9.82;4.40;;;;;;;11.70;79.88;97570.47;7378222;19;20011;-82
2023/03/30 07:06:19;;;;;;;11.65;3.90;;;;;;;11.59;80.45;97577.66;7388119;19;20104;-81
2023/03/30 07:08:45;;;;;;;12.30;4.43;;;;;;;11.62;80.62;97589.56;7389817;19;20010;-82
2023/03/30 07:11:12;;;;;;;15.48;4.57;;;;;;;11.64;80.80;97587.59;7388040;19;20003;-83
2023/03/30 07:13:38;;;;;;;9.13;3.60;;;;;;;11.74;80.65;97572.59;7387298;19;19998;-85
2023/03/30 07:16:06;;;;;;;10.88;4.00;;;;;;;11.78;80.69;97575.69;7389163;19;20003;-84
2023/03/30 07:18:32;;;;;;;11.25;4.25;;;;;;;11.79;80.34;97578.16;7389842;19;20015;-85
2023/03/30 07:20:58;;;;;;;11.50;4.55;;;;;;;11.71;80.99;97596.41;7384660;19;20069;-84
2023/03/30 07:23:25;;;;;;;10.43;3.60;;;;;;;11.70;81.38;97593.97;7388022;19;20015;-85
2023/03/30 07:25:51;;;;;;;11.90;4.45;;;;;;;11.65;81.80;97597.03;7388218;19;20462;-83
2023/03/30 07:28:18;;;;;;;11.70;4.38;;;;;;;11.59;82.37;97626.41;7387947;19;20473;-81
2023/03/30 07:30:44;;;;;;;10.27;5.15;;;;;;;11.62;82.43;97668.63;7390111;19;20038;-82
2023/03/30 07:33:11;;;;;;;10.85;3.85;;;;;;;11.51;83.53;97704.59;7385472;19;20014;-83
2023/03/30 07:35:44;;;;;;;16.40;4.72;;;;;;;11.47;85.15;97732.00;7388676;19;20006;-83
2023/03/30 07:38:12;;;;;;;17.27;5.63;;;;;;;11.45;85.65;97726.94;7388334;19;20010;-82
2023/03/30 07:40:38;;;;;;;13.18;5.32;;;;;;;11.41;85.99;97715.16;7389416;19;20011;-83
2023/03/30 07:43:04;;;;;;;15.50;5.50;;;;;;;11.35;86.44;97732.25;7387839;19;20006;-82
2023/03/30 07:45:30;;;;;;;17.73;4.78;;;;;;;11.38;86.85;97733.75;7387378;19;20018;-82
2023/03/30 07:47:57;;;;;;;18.83;4.95;;;;;;;11.43;86.97;97728.88;7382611;19;20067;-83
2023/03/30 07:50:24;;;;;;;14.02;4.45;;;;;;;11.44;87.08;97741.75;7385232;19;20039;-80
2023/03/30 07:52:51;;;;;;;13.55;5.47;;;;;;;11.51;87.13;97736.72;7389269;19;20022;-80
2023/03/30 07:55:17;;;;;;;12.13;4.55;;;;;;;11.55;87.09;97747.63;7395609;19;20010;-81
2023/03/30 07:57:44;;;;;;;17.77;5.10;;;;;;;11.54;87.26;97746.81;7393509;19;20011;-81
2023/03/30 08:00:13;;;;;;;13.43;5.32;;;;;;;11.55;87.46;97764.13;7395092;19;20099;-83
2023/03/30 08:02:41;;;;;;;11.60;4.35;;;;;;;11.50;87.04;97763.78;7377048;19;20044;-83
2023/03/30 08:05:08;;;;;;;18.65;5.15;;;;;;;11.43;87.65;97760.16;7380958;19;20010;-81
2023/03/30 08:07:41;;;;;;;10.45;4.43;;;;;;;11.40;88.00;97747.44;7393142;19;20719;-80
2023/03/30 08:10:09;;;;;;;15.13;5.20;;;;;;;11.41;88.53;97754.28;7391878;19;20025;-81
2023/03/30 08:12:35;;;;;;;13.18;4.55;;;;;;;11.32;89.84;97747.41;7394602;19;20566;-80
2023/03/30 08:15:11;;;;;;;16.52;4.63;;;;;;;11.27;90.54;97734.03;7394464;19;20371;-81
2023/03/30 08:17:37;;;;;;;16.02;5.22;;;;;;;11.30;91.31;97738.94;7394795;19;20019;-81
2023/03/30 08:20:09;;;;;;;18.63;5.43;;;;;;;11.32;91.68;97736.97;7394536;19;20017;-79
2023/03/30 08:22:35;;;;;;;13.65;5.82;;;;;;;11.25;91.47;97748.03;7395382;19;20088;-80
2023/03/30 08:25:02;;;;;;;17.33;5.25;;;;;;;11.32;91.98;97740.41;7391061;19;20018;-79
2023/03/30 08:27:28;;;;;;;16.92;5.28;;;;;;;11.27;91.95;97747.06;7389778;19;20014;-80
2023/03/30 08:29:54;;;;;;;13.13;4.20;;;;;;;11.23;92.47;97757.78;7391618;19;20033;-80
2023/03/30 08:32:20;;;;;;;11.48;4.57;;;;;;;11.16;93.05;97779.44;7391583;19;20078;-79
2023/03/30 08:34:47;;;;;;;21.30;4.68;;;;;;;11.09;93.94;97776.63;7393143;19;20014;-79
2023/03/30 08:37:13;;;;;;;12.25;3.50;;;;;;;11.04;94.35;97781.50;7392213;19;20351;-79
2023/03/30 08:39:39;;;;;;;10.70;4.07;;;;;;;11.09;94.79;97771.41;7391584;19;20014;-79
2023/03/30 08:42:39;;;;;;;9.40;3.97;;;;;;;11.06;94.54;97759.50;7389802;19;20025;-78
2023/03/30 08:45:10;;;;;;;7.68;3.00;;;;;;;11.10;94.46;97735.75;7389392;19;20462;-79
2023/03/30 08:47:42;;;;;;;12.88;3.47;;;;;;;11.09;93.78;97734.09;7389487;19;20014;-79
2023/03/30 08:50:28;;;;;;;9.68;3.78;;;;;;;11.19;93.94;97745.22;7389918;19;20006;-79
2023/03/30 08:52:55;;;;;;;8.35;3.58;;;;;;;11.14;94.02;97743.09;7391883;19;20115;-79
2023/03/30 08:55:45;;;;;;;10.60;3.53;;;;;;;11.18;93.92;97747.03;7391245;19;20011;-81
2023/03/30 08:58:38;;;;;;;11.82;4.05;;;;;;;11.28;94.26;97746.91;7388134;19;20002;-79
2023/03/30 09:01:30;;;;;;;9.65;3.35;;;;;;;11.33;93.94;97736.03;7387984;19;20015;-79
2023/03/30 09:04:09;;;;;;;10.30;3.70;;;;;;;11.44;94.26;97736.53;7379083;19;20360;-79
2023/03/30 09:06:59;;;;;;;10.27;3.38;;;;;;;11.44;93.46;97741.75;7387061;19;20011;-80
2023/03/30 09:09:30;;;;;;;7.67;3.47;;;;;;;11.57;93.79;97728.25;7390105;19;20014;-79
2023/03/30 09:12:14;;;;;;;6.53;3.72;;;;;;;11.74;94.45;97733.53;7389105;19;20473;-78
2023/03/30 09:14:50;;;;;;;12.18;4.28;;;;;;;11.89;94.69;97733.69;7389124;19;20006;-78
2023/03/30 09:17:38;;;;;;;12.82;4.20;;;;;;;12.02;94.53;97728.06;7391114;19;20082;-77
2023/03/30 09:20:15;;;;;;;15.40;4.95;;;;;;;12.09;93.76;97713.38;7385985;19;20018;-77
2023/03/30 09:22:43;;;;;;;7.50;4.35;;;;;;;12.18;93.29;97715.00;7386552;19;20006;-77
2023/03/30 09:25:57;;;;;;;9.43;4.65;;;;;;;12.17;92.23;97721.22;7385837;19;20018;-77
2023/03/30 09:28:57;;;;;;;11.90;4.57;;;;;;;12.17;91.62;97721.22;7384153;19;20015;-78
2023/03/30 09:32:31;;;;;;;11.23;5.53;;;;;;;12.12;91.09;97728.72;7386373;19;20007;-78
2023/03/30 09:35:13;;;;;;;18.95;5.88;;;;;;;12.17;91.65;97737.69;7386575;19;20034;-78
2023/03/30 09:37:39;;;;;;;11.73;5.22;;;;;;;12.19;91.31;97740.13;7388267;19;20361;-78
2023/03/30 09:41:06;;;;;;;13.07;4.95;;;;;;;12.21;91.08;97748.59;7386815;19;20015;-78
2023/03/30 09:43:43;;;;;;;9.63;4.35;;;;;;;12.22;90.62;97755.47;7385396;19;20003;-77
2023/03/30 09:46:09;;;;;;;15.65;5.38;;;;;;;12.26;91.19;97750.75;7383954;19;20007;-77
2023/03/30 09:48:44;;;;;;;11.73;5.40;;;;;;;12.26;91.25;97755.97;7387181;19;20539;-78
2023/03/30 09:51:52;;;;;;;15.15;5.40;;;;;;;12.16;90.35;97741.25;7387522;19;20006;-78
2023/03/30 09:54:21;;;;;;;8.38;5.15;;;;;;;12.15;90.55;97723.19;7387349;19;20018;-79
2023/03/30 09:56:50;;;;;;;12.32;5.70;;;;;;;12.14;90.68;97732.78;7386342;19;20399;-78
2023/03/30 09:59:27;;;;;;;10.43;5.90;;;;;;;12.17;90.46;97713.38;7386731;19;20021;-78
2023/03/30 10:02:11;;;;;;;17.80;6.05;;;;;;;12.28;90.50;97693.94;7384202;19;20015;-77
2023/03/30 10:04:59;;;;;;;14.23;5.85;;;;;;;12.36;89.95;97681.69;7375612;19;20006;-78
2023/03/30 10:07:40;;;;;;;13.23;5.38;;;;;;;12.48;89.96;97689.22;7388647;19;20014;-78
2023/03/30 10:10:30;;;;;;;13.05;5.50;;;;;;;12.57;89.06;97701.25;7385787;19;20021;-78
2023/03/30 10:13:05;;;;;;;20.27;6.60;;;;;;;12.71;88.84;97690.16;7385274;19;20073;-78
2023/03/30 10:15:36;;;;;;;14.55;4.85;;;;;;;12.81;87.55;97687.31;7384743;19;20375;-78
2023/03/30 10:18:51;;;;;;;18.38;5.18;;;;;;;12.79;86.60;97678.84;7385625;19;20010;-79
2023/03/30 10:21:26;;;;;;;16.77;6.28;;;;;;;12.84;86.73;97678.34;7388104;19;20010;-79
2023/03/30 10:24:13;;;;;;;14.57;5.63;;;;;;;12.98;86.80;97680.25;7387967;19;20014;-78
2023/03/30 10:26:45;;;;;;;15.35;5.55;;;;;;;13.09;86.47;97664.19;7385083;19;20664;-78
2023/03/30 10:29:17;;;;;;;13.00;5.03;;;;;;;13.13;86.01;97667.28;7386625;19;20134;-79
2023/03/30 10:31:46;;;;;;;11.63;5.88;;;;;;;13.06;86.19;97675.00;7385093;19;20017;-79
2023/03/30 10:34:22;;;;;;;16.73;6.68;;;;;;;12.91;86.07;97674.06;7390055;19;20035;-80
2023/03/30 10:36:53;;;;;;;14.93;5.30;;;;;;;12.81;86.40;97673.44;7388207;19;20007;-79
2023/03/30 10:39:28;;;;;;;22.48;7.75;;;;;;;12.83;86.85;97677.50;7385907;19;20010;-79
2023/03/30 10:41:56;;;;;;;14.07;5.68;;;;;;;12.88;87.28;97683.03;7385598;19;20085;-78
2023/03/30 10:44:40;;;;;;;14.20;5.53;;;;;;;12.98;86.68;97685.47;7388278;19;20026;-80
2023/03/30 10:47:56;;;;;;;9.32;5.03;;;;;;;13.05;86.66;97686.41;7386214;19;20498;-79
2023/03/30 10:50:34;;;;;;;13.50;5.65;;;;;;;13.06;86.61;97684.63;7387439;19;20018;-79
2023/03/30 10:53:51;;;;;;;12.27;5.50;;;;;;;13.15;85.93;97672.34;7383814;19;20015;-79
2023/03/30 10:56:41;;;;;;;9.63;4.63;;;;;;;13.04;84.14;97669.13;7383138;19;20014;-79
2023/03/30 10:59:44;;;;;;;10.30;4.30;;;;;;;13.23;86.20;97675.75;7387706;19;20014;-80
2023/03/30 11:02:58;;;;;;;10.38;5.07;;;;;;;13.54;84.97;97663.66;7385379;19;20014;-80
2023/03/30 11:06:20;;;;;;;13.35;5.13;;;;;;;13.95;83.96;97666.81;7375148;19;20070;-80
2023/03/30 11:08:51;;;;;;;14.82;5.57;;;;;;;14.23;83.67;97661.00;7386038;19;20002;-81
2023/03/30 11:11:32;;;;;;;10.77;4.50;;;;;;;14.31;81.55;97668.81;7388666;19;20470;-80
2023/03/30 11:14:12;;;;;;;9.73;4.20;;;;;;;14.22;81.01;97675.94;7387626;19;20018;-82
2023/03/30 11:17:02;;;;;;;12.17;4.73;;;;;;;14.20;81.96;97666.59;7388275;19;20015;-82
2023/03/30 11:19:46;;;;;;;12.55;4.85;;;;;;;14.19;81.38;97654.50;7384725;19;20074;-81
2023/03/30 11:22:45;;;;;;;11.57;4.88;;;;;;;13.93;81.16;97660.94;7383676;19;20043;-82
2023/03/30 11:25:21;;;;;;;10.95;4.43;;;;;;;13.81;80.85;97662.31;7387620;19;20010;-82
2023/03/30 11:28:14;;;;;;;11.32;5.47;;;;;;;13.74;80.77;97667.44;7390525;19;20006;-81
2023/03/30 11:30:42;;;;;;;8.60;4.20;;;;;;;13.86;80.82;97668.69;7395058;19;20034;-83
2023/03/30 11:33:49;;;;;;;6.60;3.40;;;;;;;13.80;77.45;97661.53;7392324;19;20035;-81
2023/03/30 11:36:33;;;;;;;6.35;3.58;;;;;;;13.77;77.65;97677.56;7388939;19;20007;-82
2023/03/30 11:39:03;;;;;;;8.82;3.22;;;;;;;14.04;79.75;97668.38;7394916;19;20023;-82
2023/03/30 11:41:44;;;;;;;4.82;3.20;;;;;;;14.06;74.00;97665.56;7392317;19;20010;-79
2023/03/30 11:44:10;;;;;;;;;;;;;;;14.20;75.95;97685.75;7393497;19;20006;-80
2023/03/30 11:46:46;;;;;;;6.72;3.20;;;;;;;14.19;76.44;97670.22;7394992;19;19918;-81
2023/03/30 11:50:00;;;;;;;4.18;2.88;;;;;;;13.94;75.50;97667.78;7391603;19;20011;-82
2023/03/30 11:52:45;;;;;;;6.57;3.28;;;;;;;13.89;76.52;97657.03;7391699;19;20046;-82
2023/03/30 11:55:47;;;;;;;5.72;2.75;;;;;;;13.86;75.46;97666.06;7393725;19;20010;-81
2023/03/30 11:58:27;;;;;;;5.22;3.25;;;;;;;13.80;73.61;97663.34;7395147;19;20042;-80
2023/03/30 12:01:30;;;;;;;5.93;2.72;;;;;;;13.80;71.89;97669.38;7395317;19;20329;-80
2023/03/30 12:04:10;;;;;;;7.25;4.00;;;;;;;13.83;73.88;97663.78;7387908;19;20164;-81
2023/03/30 12:07:00;;;;;;;3.95;2.95;;;;;;;13.88;72.97;97668.50;7394823;19;20474;-81